sensor_id;sensor_type;location;lat;lon;timestamp;pressure;altitude;pressure_sealevel;temperature;humidity
25238;BME280;13185;50.872;5.306;2022-11-15T00:01:06;100538.75;;;9.67;100.00
25238;BME280;13185;50.872;5.306;2022-11-15T00:03:51;100540.44;;;9.68;100.00
25238;BME280;13185;50.872;5.306;2022-11-15T00:06:36;100542.19;;;9.69;100.00
25238;BME280;13185;50.872;5.306;2022-11-15T00:09:20;100541.13;;;9.72;100.00
25238;BME280;13185;50.872;5.306;2022-11-15T00:12:04;100532.88;;;9.75;100.00
25238;BME280;13185;50.872;5.306;2022-11-15T00:14:48;100539.75;;;9.79;100.00
25238;BME280;13185;50.872;5.306;2022-11-15T00:17:32;100537.84;;;9.81;100.00
25238;BME280;13185;50.872;5.306;2022-11-15T00:20:17;100536.03;;;9.81;100.00
25238;BME280;13185;50.872;5.306;2022-11-15T00:23:03;100541.38;;;9.81;100.00
25238;BME280;13185;50.872;5.306;2022-11-15T00:25:55;100536.03;;;9.81;100.00
25238;BME280;13185;50.872;5.306;2022-11-15T00:28:40;100535.81;;;9.84;100.00
25238;BME280;13185;50.872;5.306;2022-11-15T00:31:24;100532.91;;;9.88;100.00
25238;BME280;13185;50.872;5.306;2022-11-15T00:34:09;100522.09;;;9.89;100.00
25238;BME280;13185;50.872;5.306;2022-11-15T00:36:53;100525.56;;;9.91;100.00
25238;BME280;13185;50.872;5.306;2022-11-15T00:39:38;100531.78;;;9.92;100.00
25238;BME280;13185;50.872;5.306;2022-11-15T00:42:22;100540.44;;;9.95;100.00
25238;BME280;13185;50.872;5.306;2022-11-15T00:45:07;100535.84;;;9.97;100.00
25238;BME280;13185;50.872;5.306;2022-11-15T00:47:51;100516.00;;;10.00;100.00
25238;BME280;13185;50.872;5.306;2022-11-15T00:50:35;100519.47;;;10.02;100.00
25238;BME280;13185;50.872;5.306;2022-11-15T00:53:19;100518.50;;;10.03;100.00
25238;BME280;13185;50.872;5.306;2022-11-15T00:56:04;100504.16;;;10.04;100.00
25238;BME280;13185;50.872;5.306;2022-11-15T00:58:48;100502.31;;;10.04;100.00
25238;BME280;13185;50.872;5.306;2022-11-15T01:01:32;100504.91;;;10.06;100.00
25238;BME280;13185;50.872;5.306;2022-11-15T01:04:16;100503.06;;;10.06;100.00
25238;BME280;13185;50.872;5.306;2022-11-15T01:07:01;100497.72;;;10.06;100.00
25238;BME280;13185;50.872;5.306;2022-11-15T01:09:45;100514.53;;;10.08;100.00
25238;BME280;13185;50.872;5.306;2022-11-15T01:12:29;100505.53;;;10.09;100.00
25238;BME280;13185;50.872;5.306;2022-11-15T01:15:13;100503.63;;;10.11;100.00
25238;BME280;13185;50.872;5.306;2022-11-15T01:17:57;100503.63;;;10.11;100.00
25238;BME280;13185;50.872;5.306;2022-11-15T01:20:42;100504.50;;;10.12;100.00
25238;BME280;13185;50.872;5.306;2022-11-15T01:23:27;100498.34;;;10.10;100.00
25238;BME280;13185;50.872;5.306;2022-11-15T01:26:14;100502.78;;;10.11;100.00
25238;BME280;13185;50.872;5.306;2022-11-15T01:28:58;100508.88;;;10.13;100.00
25238;BME280;13185;50.872;5.306;2022-11-15T01:31:42;100505.22;;;10.14;100.00
25238;BME280;13185;50.872;5.306;2022-11-15T01:34:27;100505.13;;;10.16;100.00
25238;BME280;13185;50.872;5.306;2022-11-15T01:37:11;100507.59;;;10.19;100.00
25238;BME280;13185;50.872;5.306;2022-11-15T01:39:55;100511.22;;;10.18;100.00
25238;BME280;13185;50.872;5.306;2022-11-15T01:42:39;100504.78;;;10.20;100.00
25238;BME280;13185;50.872;5.306;2022-11-15T01:45:24;100504.75;;;10.22;100.00
25238;BME280;13185;50.872;5.306;2022-11-15T01:48:10;100496.59;;;10.23;100.00
25238;BME280;13185;50.872;5.306;2022-11-15T01:50:54;100498.09;;;10.27;100.00
25238;BME280;13185;50.872;5.306;2022-11-15T01:53:40;100494.34;;;10.30;100.00
25238;BME280;13185;50.872;5.306;2022-11-15T01:56:30;100499.50;;;10.33;100.00
25238;BME280;13185;50.872;5.306;2022-11-15T01:59:15;100496.50;;;10.37;100.00
25238;BME280;13185;50.872;5.306;2022-11-15T02:01:59;100491.00;;;10.39;100.00
25238;BME280;13185;50.872;5.306;2022-11-15T02:04:46;100489.94;;;10.41;100.00
25238;BME280;13185;50.872;5.306;2022-11-15T02:07:31;100481.69;;;10.45;100.00
25238;BME280;13185;50.872;5.306;2022-11-15T02:10:22;100480.50;;;10.49;100.00
25238;BME280;13185;50.872;5.306;2022-11-15T02:13:06;100481.38;;;10.49;100.00
25238;BME280;13185;50.872;5.306;2022-11-15T02:16:13;100477.72;;;10.50;100.00
25238;BME280;13185;50.872;5.306;2022-11-15T02:22:28;100472.16;;;10.53;100.00
25238;BME280;13185;50.872;5.306;2022-11-15T02:29:01;100464.63;;;10.58;100.00
25238;BME280;13185;50.872;5.306;2022-11-15T02:32:07;100460.00;;;10.60;100.00
25238;BME280;13185;50.872;5.306;2022-11-15T02:41:27;100457.88;;;10.65;100.00
25238;BME280;13185;50.872;5.306;2022-11-15T02:44:37;100447.16;;;10.65;100.00
25238;BME280;13185;50.872;5.306;2022-11-15T02:47:24;100439.00;;;10.67;100.00
25238;BME280;13185;50.872;5.306;2022-11-15T02:50:11;100445.94;;;10.69;100.00
25238;BME280;13185;50.872;5.306;2022-11-15T02:52:56;100436.06;;;10.70;100.00
25238;BME280;13185;50.872;5.306;2022-11-15T02:55:46;100436.94;;;10.70;100.00
25238;BME280;13185;50.872;5.306;2022-11-15T03:04:56;100428.03;;;10.70;100.00
25238;BME280;13185;50.872;5.306;2022-11-15T03:11:11;100424.50;;;10.69;100.00
25238;BME280;13185;50.872;5.306;2022-11-15T03:14:25;100422.66;;;10.70;100.00
25238;BME280;13185;50.872;5.306;2022-11-15T03:17:23;100422.78;;;10.68;100.00
25238;BME280;13185;50.872;5.306;2022-11-15T03:20:09;100420.94;;;10.69;100.00
25238;BME280;13185;50.872;5.306;2022-11-15T03:23:01;100410.34;;;10.67;100.00
25238;BME280;13185;50.872;5.306;2022-11-15T03:25:48;100417.53;;;10.67;100.00
25238;BME280;13185;50.872;5.306;2022-11-15T03:28:38;100426.53;;;10.66;100.00
25238;BME280;13185;50.872;5.306;2022-11-15T03:31:28;100414.09;;;10.65;100.00
25238;BME280;13185;50.872;5.306;2022-11-15T03:34:49;100413.25;;;10.64;100.00
25238;BME280;13185;50.872;5.306;2022-11-15T03:40:48;100411.44;;;10.65;100.00
25238;BME280;13185;50.872;5.306;2022-11-15T03:43:42;100408.75;;;10.65;100.00
25238;BME280;13185;50.872;5.306;2022-11-15T03:46:40;100409.47;;;10.67;100.00
25238;BME280;13185;50.872;5.306;2022-11-15T03:49:31;100406.06;;;10.65;100.00
25238;BME280;13185;50.872;5.306;2022-11-15T03:52:21;100407.88;;;10.64;100.00
25238;BME280;13185;50.872;5.306;2022-11-15T03:55:09;100408.00;;;10.63;100.00
25238;BME280;13185;50.872;5.306;2022-11-15T03:57:57;100410.69;;;10.63;100.00
25238;BME280;13185;50.872;5.306;2022-11-15T04:00:42;100401.75;;;10.62;100.00
25238;BME280;13185;50.872;5.306;2022-11-15T04:03:26;100404.44;;;10.62;100.00
25238;BME280;13185;50.872;5.306;2022-11-15T04:06:10;100403.50;;;10.63;100.00
25238;BME280;13185;50.872;5.306;2022-11-15T04:08:54;100397.28;;;10.63;100.00
25238;BME280;13185;50.872;5.306;2022-11-15T04:11:39;100402.63;;;10.63;100.00
25238;BME280;13185;50.872;5.306;2022-11-15T04:14:23;100403.50;;;10.63;100.00
25238;BME280;13185;50.872;5.306;2022-11-15T04:17:07;100405.31;;;10.63;100.00
25238;BME280;13185;50.872;5.306;2022-11-15T04:19:51;100401.66;;;10.64;100.00
25238;BME280;13185;50.872;5.306;2022-11-15T04:22:55;100401.66;;;10.64;100.00
25238;BME280;13185;50.872;5.306;2022-11-15T04:26:01;100406.06;;;10.65;100.00
25238;BME280;13185;50.872;5.306;2022-11-15T04:28:46;100397.16;;;10.64;100.00
25238;BME280;13185;50.872;5.306;2022-11-15T04:31:50;100406.06;;;10.65;100.00
25238;BME280;13185;50.872;5.306;2022-11-15T04:34:34;100403.25;;;10.66;100.00
25238;BME280;13185;50.872;5.306;2022-11-15T04:37:18;100410.34;;;10.67;100.00
25238;BME280;13185;50.872;5.306;2022-11-15T04:40:03;100411.19;;;10.68;100.00
25238;BME280;13185;50.872;5.306;2022-11-15T04:42:47;100405.09;;;10.66;100.00
25238;BME280;13185;50.872;5.306;2022-11-15T04:45:31;100420.09;;;10.68;100.00
25238;BME280;13185;50.872;5.306;2022-11-15T04:48:15;100436.31;;;10.67;100.00
25238;BME280;13185;50.872;5.306;2022-11-15T04:50:59;100441.56;;;10.56;100.00
25238;BME280;13185;50.872;5.306;2022-11-15T04:53:43;100448.69;;;10.44;100.00
25238;BME280;13185;50.872;5.306;2022-11-15T04:56:27;100451.88;;;10.36;100.00
25238;BME280;13185;50.872;5.306;2022-11-15T04:59:11;100445.13;;;10.31;100.00
25238;BME280;13185;50.872;5.306;2022-11-15T05:01:55;100444.59;;;10.26;100.00
25238;BME280;13185;50.872;5.306;2022-11-15T05:04:39;100447.50;;;10.23;100.00
25238;BME280;13185;50.872;5.306;2022-11-15T05:07:23;100444.00;;;10.21;100.00
25238;BME280;13185;50.872;5.306;2022-11-15T05:10:07;100449.38;;;10.21;100.00
25238;BME280;13185;50.872;5.306;2022-11-15T05:12:52;100446.81;;;10.19;100.00
25238;BME280;13185;50.872;5.306;2022-11-15T05:15:35;100447.66;;;10.20;100.00
25238;BME280;13185;50.872;5.306;2022-11-15T05:18:20;100446.91;;;10.18;100.00
25238;BME280;13185;50.872;5.306;2022-11-15T05:21:05;100447.03;;;10.16;100.00
25238;BME280;13185;50.872;5.306;2022-11-15T05:23:50;100440.06;;;10.13;100.00
25238;BME280;13185;50.872;5.306;2022-11-15T05:26:34;100441.88;;;10.13;100.00
25238;BME280;13185;50.872;5.306;2022-11-15T05:29:18;100446.59;;;10.09;100.00
25238;BME280;13185;50.872;5.306;2022-11-15T05:32:05;100436.09;;;10.06;100.00
25238;BME280;13185;50.872;5.306;2022-11-15T05:34:49;100429.97;;;10.04;100.00
25238;BME280;13185;50.872;5.306;2022-11-15T05:37:33;100437.38;;;10.01;100.00
25238;BME280;13185;50.872;5.306;2022-11-15T05:40:17;100431.13;;;10.00;100.00
25238;BME280;13185;50.872;5.306;2022-11-15T05:43:03;100442.81;;;9.99;100.00
25238;BME280;13185;50.872;5.306;2022-11-15T05:45:47;100439.50;;;9.96;100.00
25238;BME280;13185;50.872;5.306;2022-11-15T05:48:34;100441.44;;;9.94;100.00
25238;BME280;13185;50.872;5.306;2022-11-15T05:51:20;100447.09;;;9.89;100.00
25238;BME280;13185;50.872;5.306;2022-11-15T05:54:05;100440.03;;;9.88;100.00
25238;BME280;13185;50.872;5.306;2022-11-15T05:56:49;100449.03;;;9.87;100.00
25238;BME280;13185;50.872;5.306;2022-11-15T05:59:34;100451.81;;;9.86;100.00
25238;BME280;13185;50.872;5.306;2022-11-15T06:02:19;100457.28;;;9.84;100.00
25238;BME280;13185;50.872;5.306;2022-11-15T06:05:03;100454.03;;;9.79;100.00
25238;BME280;13185;50.872;5.306;2022-11-15T06:07:48;100453.28;;;9.77;100.00
25238;BME280;13185;50.872;5.306;2022-11-15T06:10:32;100456.09;;;9.75;100.00
25238;BME280;13185;50.872;5.306;2022-11-15T06:13:16;100449.97;;;9.73;100.00
25238;BME280;13185;50.872;5.306;2022-11-15T06:16:01;100446.44;;;9.73;100.00
25238;BME280;13185;50.872;5.306;2022-11-15T06:18:45;100446.56;;;9.71;100.00
25238;BME280;13185;50.872;5.306;2022-11-15T06:21:29;100443.97;;;9.70;100.00
25238;BME280;13185;50.872;5.306;2022-11-15T06:24:13;100448.47;;;9.69;100.00
25238;BME280;13185;50.872;5.306;2022-11-15T06:26:58;100444.16;;;9.67;100.00
25238;BME280;13185;50.872;5.306;2022-11-15T06:29:42;100444.50;;;9.62;100.00
25238;BME280;13185;50.872;5.306;2022-11-15T06:32:26;100458.28;;;9.56;100.00
25238;BME280;13185;50.872;5.306;2022-11-15T06:35:10;100453.25;;;9.51;100.00
25238;BME280;13185;50.872;5.306;2022-11-15T06:37:55;100458.88;;;9.47;100.00
25238;BME280;13185;50.872;5.306;2022-11-15T06:40:39;100462.84;;;9.41;100.00
25238;BME280;13185;50.872;5.306;2022-11-15T06:43:23;100459.50;;;9.38;100.00
25238;BME280;13185;50.872;5.306;2022-11-15T06:46:08;100464.19;;;9.34;100.00
25238;BME280;13185;50.872;5.306;2022-11-15T06:48:53;100469.88;;;9.30;100.00
25238;BME280;13185;50.872;5.306;2022-11-15T06:51:37;100472.72;;;9.26;100.00
25238;BME280;13185;50.872;5.306;2022-11-15T06:54:21;100476.47;;;9.24;100.00
25238;BME280;13185;50.872;5.306;2022-11-15T06:57:06;100481.72;;;9.25;100.00
25238;BME280;13185;50.872;5.306;2022-11-15T06:59:50;100484.28;;;9.27;100.00
25238;BME280;13185;50.872;5.306;2022-11-15T07:02:34;100481.59;;;9.27;100.00
25238;BME280;13185;50.872;5.306;2022-11-15T07:05:19;100482.56;;;9.26;100.00
25238;BME280;13185;50.872;5.306;2022-11-15T07:08:03;100490.59;;;9.26;100.00
25238;BME280;13185;50.872;5.306;2022-11-15T07:10:48;100488.03;;;9.24;100.00
25238;BME280;13185;50.872;5.306;2022-11-15T07:13:34;100484.28;;;9.27;100.00
25238;BME280;13185;50.872;5.306;2022-11-15T07:16:18;100474.53;;;9.26;100.00
25238;BME280;13185;50.872;5.306;2022-11-15T07:19:03;100480.00;;;9.24;100.00
25238;BME280;13185;50.872;5.306;2022-11-15T07:21:47;100469.50;;;9.21;100.00
25238;BME280;13185;50.872;5.306;2022-11-15T07:24:31;100470.56;;;9.19;100.00
25238;BME280;13185;50.872;5.306;2022-11-15T07:27:15;100475.34;;;9.14;100.00
25238;BME280;13185;50.872;5.306;2022-11-15T07:29:59;100483.47;;;9.12;100.00
25238;BME280;13185;50.872;5.306;2022-11-15T07:32:44;100490.75;;;9.10;100.00
25238;BME280;13185;50.872;5.306;2022-11-15T07:35:29;100484.75;;;9.07;100.00
25238;BME280;13185;50.872;5.306;2022-11-15T07:38:14;100493.03;;;9.02;100.00
25238;BME280;13185;50.872;5.306;2022-11-15T07:41:01;100491.97;;;9.05;100.00
25238;BME280;13185;50.872;5.306;2022-11-15T07:43:45;100503.25;;;9.10;100.00
25238;BME280;13185;50.872;5.306;2022-11-15T07:46:30;100499.63;;;9.11;100.00
25238;BME280;13185;50.872;5.306;2022-11-15T07:49:14;100497.50;;;9.16;100.00
25238;BME280;13185;50.872;5.306;2022-11-15T07:51:59;100496.63;;;9.15;100.00
25238;BME280;13185;50.872;5.306;2022-11-15T07:54:43;100495.03;;;9.13;100.00
25238;BME280;13185;50.872;5.306;2022-11-15T07:57:27;100496.84;;;9.12;100.00
25238;BME280;13185;50.872;5.306;2022-11-15T08:00:12;100504.03;;;9.12;100.00
25238;BME280;13185;50.872;5.306;2022-11-15T08:03:13;100500.47;;;9.11;100.00
25238;BME280;13185;50.872;5.306;2022-11-15T08:05:57;100492.47;;;9.11;100.00
25238;BME280;13185;50.872;5.306;2022-11-15T08:08:41;100499.41;;;9.14;100.00
25238;BME280;13185;50.872;5.306;2022-11-15T08:11:26;100491.41;;;9.14;100.00
25238;BME280;13185;50.872;5.306;2022-11-15T08:14:10;100488.94;;;9.11;100.00
25238;BME280;13185;50.872;5.306;2022-11-15T08:16:54;100487.97;;;9.12;100.00
25238;BME280;13185;50.872;5.306;2022-11-15T08:19:39;100488.94;;;9.11;100.00
25238;BME280;13185;50.872;5.306;2022-11-15T08:22:23;100495.25;;;9.10;100.00
25238;BME280;13185;50.872;5.306;2022-11-15T08:25:06;100503.25;;;9.10;100.00
25238;BME280;13185;50.872;5.306;2022-11-15T08:27:54;100499.63;;;9.11;100.00
25238;BME280;13185;50.872;5.306;2022-11-15T08:30:40;100492.56;;;9.10;100.00
25238;BME280;13185;50.872;5.306;2022-11-15T08:33:26;100494.28;;;9.11;100.00
25238;BME280;13185;50.872;5.306;2022-11-15T08:36:13;100481.97;;;9.08;100.00
25238;BME280;13185;50.872;5.306;2022-11-15T08:38:58;100474.91;;;9.07;100.00
25238;BME280;13185;50.872;5.306;2022-11-15T08:41:43;100456.25;;;9.06;100.00
25238;BME280;13185;50.872;5.306;2022-11-15T08:44:28;100449.00;;;9.08;100.00
25238;BME280;13185;50.872;5.306;2022-11-15T08:47:12;100446.13;;;9.11;100.00
25238;BME280;13185;50.872;5.306;2022-11-15T08:49:57;100444.41;;;9.10;100.00
25238;BME280;13185;50.872;5.306;2022-11-15T08:52:41;100438.09;;;9.11;100.00
25238;BME280;13185;50.872;5.306;2022-11-15T08:55:25;100431.78;;;9.12;100.00
25238;BME280;13185;50.872;5.306;2022-11-15T08:58:10;100429.97;;;9.12;100.00
25238;BME280;13185;50.872;5.306;2022-11-15T09:00:54;100434.25;;;9.15;100.00
25238;BME280;13185;50.872;5.306;2022-11-15T09:03:40;100423.38;;;9.18;100.00
25238;BME280;13185;50.872;5.306;2022-11-15T09:06:24;100424.00;;;9.21;100.00
25238;BME280;13185;50.872;5.306;2022-11-15T09:09:08;100418.66;;;9.21;100.00
25238;BME280;13185;50.872;5.306;2022-11-15T09:11:52;100418.44;;;9.24;100.00
25238;BME280;13185;50.872;5.306;2022-11-15T09:14:36;100420.84;;;9.29;100.00
25238;BME280;13185;50.872;5.306;2022-11-15T09:17:21;100419.97;;;9.29;100.00
25238;BME280;13185;50.872;5.306;2022-11-15T09:20:05;100411.84;;;9.30;100.00
25238;BME280;13185;50.872;5.306;2022-11-15T09:22:49;100414.53;;;9.30;100.00
25238;BME280;13185;50.872;5.306;2022-11-15T09:25:34;100419.66;;;9.33;100.00
25238;BME280;13185;50.872;5.306;2022-11-15T09:28:18;100405.31;;;9.34;100.00
25238;BME280;13185;50.872;5.306;2022-11-15T09:31:04;100413.13;;;9.37;100.00
25238;BME280;13185;50.872;5.306;2022-11-15T09:33:48;100401.50;;;9.38;100.00
25238;BME280;13185;50.872;5.306;2022-11-15T09:36:32;100404.94;;;9.40;100.00
25238;BME280;13185;50.872;5.306;2022-11-15T09:39:16;100403.84;;;9.43;100.00
25238;BME280;13185;50.872;5.306;2022-11-15T09:42:23;100403.63;;;9.46;100.00
25238;BME280;13185;50.872;5.306;2022-11-15T09:45:12;100391.78;;;9.50;100.00
25238;BME280;13185;50.872;5.306;2022-11-15T09:48:26;100399.28;;;9.58;100.00
25238;BME280;13185;50.872;5.306;2022-11-15T09:54:05;100407.88;;;9.75;100.00
25238;BME280;13185;50.872;5.306;2022-11-15T09:56:39;100405.44;;;9.85;100.00
25238;BME280;13185;50.872;5.306;2022-11-15T10:02:04;100403.31;;;10.03;100.00
25238;BME280;13185;50.872;5.306;2022-11-15T10:04:38;100396.53;;;10.10;100.00
25238;BME280;13185;50.872;5.306;2022-11-15T10:09:51;100394.41;;;10.15;96.93
25238;BME280;13185;50.872;5.306;2022-11-15T10:12:18;100392.47;;;10.17;95.72
25238;BME280;13185;50.872;5.306;2022-11-15T10:14:45;100378.31;;;10.15;96.08
25238;BME280;13185;50.872;5.306;2022-11-15T10:17:36;100373.06;;;10.13;94.39
25238;BME280;13185;50.872;5.306;2022-11-15T10:20:20;100376.38;;;10.17;95.64
25238;BME280;13185;50.872;5.306;2022-11-15T10:22:51;100378.69;;;10.23;96.11
25238;BME280;13185;50.872;5.306;2022-11-15T10:27:58;100371.38;;;10.25;96.20
25238;BME280;13185;50.872;5.306;2022-11-15T10:30:39;100363.34;;;10.25;94.25
25238;BME280;13185;50.872;5.306;2022-11-15T10:33:32;100352.72;;;10.24;93.40
25238;BME280;13185;50.872;5.306;2022-11-15T10:38:33;100346.72;;;10.33;94.22
25238;BME280;13185;50.872;5.306;2022-11-15T10:41:13;100342.59;;;10.40;94.35
25238;BME280;13185;50.872;5.306;2022-11-15T10:43:38;100343.78;;;10.49;93.99
25238;BME280;13185;50.872;5.306;2022-11-15T10:46:30;100336.03;;;10.57;93.72
25238;BME280;13185;50.872;5.306;2022-11-15T10:49:15;100329.16;;;10.65;93.16
25238;BME280;13185;50.872;5.306;2022-11-15T10:51:54;100322.34;;;10.73;91.73
25238;BME280;13185;50.872;5.306;2022-11-15T10:54:33;100322.03;;;10.77;91.01
25238;BME280;13185;50.872;5.306;2022-11-15T10:57:08;100296.47;;;10.84;90.84
25238;BME280;13185;50.872;5.306;2022-11-15T10:59:37;100295.25;;;10.88;87.93
25238;BME280;13185;50.872;5.306;2022-11-15T11:02:29;100294.16;;;10.91;88.50
25238;BME280;13185;50.872;5.306;2022-11-15T11:04:55;100290.06;;;10.98;89.63
25238;BME280;13185;50.872;5.306;2022-11-15T11:07:23;100279.81;;;11.03;88.33
25238;BME280;13185;50.872;5.306;2022-11-15T11:10:01;100272.28;;;11.08;88.82
25238;BME280;13185;50.872;5.306;2022-11-15T11:12:29;100274.47;;;11.14;88.67
25238;BME280;13185;50.872;5.306;2022-11-15T11:14:57;100268.25;;;11.14;86.34
25238;BME280;13185;50.872;5.306;2022-11-15T11:20:10;100249.50;;;11.25;85.62
25238;BME280;13185;50.872;5.306;2022-11-15T11:25:32;100242.81;;;11.31;85.18
25238;BME280;13185;50.872;5.306;2022-11-15T11:33:31;100228.69;;;11.40;85.54
25238;BME280;13185;50.872;5.306;2022-11-15T11:36:27;100224.75;;;11.44;83.91
25238;BME280;13185;50.872;5.306;2022-11-15T11:39:36;100212.84;;;11.48;83.68
25238;BME280;13185;50.872;5.306;2022-11-15T11:44:59;100186.56;;;11.63;83.84
25238;BME280;13185;50.872;5.306;2022-11-15T11:47:33;100190.13;;;11.63;83.73
25238;BME280;13185;50.872;5.306;2022-11-15T11:50:12;100181.59;;;11.58;83.16
25238;BME280;13185;50.872;5.306;2022-11-15T11:52:58;100178.06;;;11.57;83.46
25238;BME280;13185;50.872;5.306;2022-11-15T11:55:32;100176.22;;;11.58;83.87
25238;BME280;13185;50.872;5.306;2022-11-15T12:03:52;100149.69;;;11.65;85.42
25238;BME280;13185;50.872;5.306;2022-11-15T12:09:27;100151.31;;;11.78;85.42
25238;BME280;13185;50.872;5.306;2022-11-15T12:14:57;100133.94;;;11.94;86.04
25238;BME280;13185;50.872;5.306;2022-11-15T12:17:28;100134.78;;;11.94;84.93
25238;BME280;13185;50.872;5.306;2022-11-15T12:19:59;100128.56;;;11.94;85.51
25238;BME280;13185;50.872;5.306;2022-11-15T12:22:42;100119.41;;;11.96;85.69
25238;BME280;13185;50.872;5.306;2022-11-15T12:25:19;100121.59;;;12.02;86.21
25238;BME280;13185;50.872;5.306;2022-11-15T12:27:52;100117.78;;;12.05;85.91
25238;BME280;13185;50.872;5.306;2022-11-15T12:30:20;100103.84;;;12.11;86.17
25238;BME280;13185;50.872;5.306;2022-11-15T12:32:55;100096.25;;;12.16;86.54
25238;BME280;13185;50.872;5.306;2022-11-15T12:35:37;100098.31;;;12.24;86.11
25238;BME280;13185;50.872;5.306;2022-11-15T12:38:04;100089.75;;;12.30;86.27
25238;BME280;13185;50.872;5.306;2022-11-15T12:40:34;100093.88;;;12.34;86.22
25238;BME280;13185;50.872;5.306;2022-11-15T12:43:35;100088.69;;;12.42;86.24
25238;BME280;13185;50.872;5.306;2022-11-15T12:46:02;100077.53;;;12.47;86.02
25238;BME280;13185;50.872;5.306;2022-11-15T12:51:00;100057.22;;;12.54;86.07
25238;BME280;13185;50.872;5.306;2022-11-15T12:53:27;100060.22;;;12.60;86.58
25238;BME280;13185;50.872;5.306;2022-11-15T12:58:50;100048.09;;;12.66;85.81
25238;BME280;13185;50.872;5.306;2022-11-15T13:06:43;100029.44;;;12.74;86.53
25238;BME280;13185;50.872;5.306;2022-11-15T13:11:54;100025.34;;;12.80;87.30
25238;BME280;13185;50.872;5.306;2022-11-15T13:30:35;99994.66;;;12.82;87.69
25238;BME280;13185;50.872;5.306;2022-11-15T13:33:08;100001.47;;;12.86;87.35
25238;BME280;13185;50.872;5.306;2022-11-15T13:35:39;100000.47;;;12.87;87.09
25238;BME280;13185;50.872;5.306;2022-11-15T13:38:05;99991.13;;;12.91;87.34
25238;BME280;13185;50.872;5.306;2022-11-15T13:40:36;99986.34;;;12.95;87.42
25238;BME280;13185;50.872;5.306;2022-11-15T13:43:31;99975.16;;;12.99;87.57
25238;BME280;13185;50.872;5.306;2022-11-15T13:46:28;99965.97;;;13.02;87.43
25238;BME280;13185;50.872;5.306;2022-11-15T13:49:02;99968.25;;;13.07;86.95
25238;BME280;13185;50.872;5.306;2022-11-15T13:56:32;99951.13;;;13.08;86.83
25238;BME280;13185;50.872;5.306;2022-11-15T13:59:00;99940.50;;;13.06;86.81
25238;BME280;13185;50.872;5.306;2022-11-15T14:01:28;99938.19;;;13.01;86.36
25238;BME280;13185;50.872;5.306;2022-11-15T14:03:58;99938.63;;;12.97;86.55
25238;BME280;13185;50.872;5.306;2022-11-15T14:06:29;99926.44;;;12.93;86.96
25238;BME280;13185;50.872;5.306;2022-11-15T14:09:31;99921.91;;;12.93;86.42
25238;BME280;13185;50.872;5.306;2022-11-15T14:11:58;99920.78;;;12.96;86.74
25238;BME280;13185;50.872;5.306;2022-11-15T14:14:26;99908.72;;;13.00;86.77
25238;BME280;13185;50.872;5.306;2022-11-15T14:17:00;99906.63;;;13.04;86.78
25238;BME280;13185;50.872;5.306;2022-11-15T14:24:44;99888.06;;;13.10;85.89
25238;BME280;13185;50.872;5.306;2022-11-15T14:27:27;99879.84;;;13.12;86.07
25238;BME280;13185;50.872;5.306;2022-11-15T14:29:53;99872.78;;;13.11;86.09
25238;BME280;13185;50.872;5.306;2022-11-15T14:32:24;99861.44;;;13.07;86.13
25238;BME280;13185;50.872;5.306;2022-11-15T14:35:01;99870.22;;;13.09;85.84
25238;BME280;13185;50.872;5.306;2022-11-15T14:37:29;99864.84;;;13.09;85.68
25238;BME280;13185;50.872;5.306;2022-11-15T14:39:58;99862.00;;;13.11;85.74
25238;BME280;13185;50.872;5.306;2022-11-15T14:42:24;99863.13;;;13.08;85.49
25238;BME280;13185;50.872;5.306;2022-11-15T14:44:50;99855.22;;;13.07;85.56
25238;BME280;13185;50.872;5.306;2022-11-15T14:47:16;99853.38;;;13.07;86.10
25238;BME280;13185;50.872;5.306;2022-11-15T14:49:42;99852.38;;;13.08;85.86
25238;BME280;13185;50.872;5.306;2022-11-15T14:52:28;99847.84;;;13.09;85.90
25238;BME280;13185;50.872;5.306;2022-11-15T14:54:55;99847.84;;;13.09;85.36
25238;BME280;13185;50.872;5.306;2022-11-15T14:57:23;99844.44;;;13.07;85.91
25238;BME280;13185;50.872;5.306;2022-11-15T14:59:49;99831.41;;;13.12;87.96
25238;BME280;13185;50.872;5.306;2022-11-15T15:02:19;99838.06;;;13.17;87.41
25238;BME280;13185;50.872;5.306;2022-11-15T15:04:45;99832.84;;;13.16;86.81
25238;BME280;13185;50.872;5.306;2022-11-15T15:07:10;99831.00;;;13.16;87.09
25238;BME280;13185;50.872;5.306;2022-11-15T15:09:36;99833.53;;;13.18;86.56
25238;BME280;13185;50.872;5.306;2022-11-15T15:12:01;99832.56;;;13.19;87.84
25238;BME280;13185;50.872;5.306;2022-11-15T15:14:27;99832.44;;;13.20;87.97
25238;BME280;13185;50.872;5.306;2022-11-15T15:16:52;99836.81;;;13.21;87.53
25238;BME280;13185;50.872;5.306;2022-11-15T15:19:18;99832.69;;;13.17;87.72
25238;BME280;13185;50.872;5.306;2022-11-15T15:21:43;99835.53;;;13.16;88.40
25238;BME280;13185;50.872;5.306;2022-11-15T15:24:13;99834.09;;;13.12;88.98
25238;BME280;13185;50.872;5.306;2022-11-15T15:26:40;99834.53;;;13.07;89.33
25238;BME280;13185;50.872;5.306;2022-11-15T15:29:05;99832.13;;;13.04;89.74
25238;BME280;13185;50.872;5.306;2022-11-15T15:31:31;99832.25;;;13.03;90.34
25238;BME280;13185;50.872;5.306;2022-11-15T15:33:58;99831.28;;;13.04;91.11
25238;BME280;13185;50.872;5.306;2022-11-15T15:36:23;99827.00;;;13.01;90.31
25238;BME280;13185;50.872;5.306;2022-11-15T15:38:49;99828.97;;;12.99;91.28
25238;BME280;13185;50.872;5.306;2022-11-15T15:41:15;99831.53;;;13.00;92.53
25238;BME280;13185;50.872;5.306;2022-11-15T15:43:41;99832.53;;;12.99;92.57
25238;BME280;13185;50.872;5.306;2022-11-15T15:46:12;99830.53;;;12.92;92.69
25238;BME280;13185;50.872;5.306;2022-11-15T15:48:38;99829.81;;;12.90;94.20